sensor_id;sensor_type;location;lat;lon;timestamp;P1;durP1;ratioP1;P2;durP2;ratioP2
21091;SDS011;10704;42.678;23.288;2024-03-02T00:04:20;33.30;;;16.42;;
21091;SDS011;10704;42.678;23.288;2024-03-02T00:06:46;43.58;;;18.65;;
21091;SDS011;10704;42.678;23.288;2024-03-02T00:09:12;32.33;;;17.33;;
21091;SDS011;10704;42.678;23.288;2024-03-02T00:11:40;33.72;;;15.85;;
21091;SDS011;10704;42.678;23.288;2024-03-02T00:20:38;31.45;;;15.75;;
21091;SDS011;10704;42.678;23.288;2024-03-02T00:33:21;35.65;;;16.73;;
21091;SDS011;10704;42.678;23.288;2024-03-02T00:35:48;32.97;;;16.67;;
21091;SDS011;10704;42.678;23.288;2024-03-02T00:48:55;36.80;;;18.10;;
21091;SDS011;10704;42.678;23.288;2024-03-02T00:51:23;31.95;;;16.90;;
21091;SDS011;10704;42.678;23.288;2024-03-02T00:53:53;31.58;;;15.85;;
21091;SDS011;10704;42.678;23.288;2024-03-02T00:56:22;32.00;;;16.23;;
21091;SDS011;10704;42.678;23.288;2024-03-02T00:58:49;28.80;;;15.32;;
21091;SDS011;10704;42.678;23.288;2024-03-02T01:01:15;33.50;;;15.00;;
21091;SDS011;10704;42.678;23.288;2024-03-02T01:03:41;30.95;;;16.25;;
21091;SDS011;10704;42.678;23.288;2024-03-02T01:06:08;34.30;;;16.83;;
21091;SDS011;10704;42.678;23.288;2024-03-02T01:08:34;33.17;;;16.60;;
21091;SDS011;10704;42.678;23.288;2024-03-02T01:11:01;31.52;;;17.52;;
21091;SDS011;10704;42.678;23.288;2024-03-02T01:13:27;32.67;;;16.60;;
21091;SDS011;10704;42.678;23.288;2024-03-02T01:15:53;36.42;;;17.45;;
21091;SDS011;10704;42.678;23.288;2024-03-02T01:18:19;31.77;;;16.15;;
21091;SDS011;10704;42.678;23.288;2024-03-02T01:20:45;32.70;;;17.15;;
21091;SDS011;10704;42.678;23.288;2024-03-02T01:23:11;34.38;;;16.70;;
21091;SDS011;10704;42.678;23.288;2024-03-02T01:25:37;34.08;;;16.95;;
21091;SDS011;10704;42.678;23.288;2024-03-02T01:28:03;36.22;;;17.92;;
21091;SDS011;10704;42.678;23.288;2024-03-02T01:30:30;31.98;;;16.05;;
21091;SDS011;10704;42.678;23.288;2024-03-02T01:32:56;30.80;;;15.85;;
21091;SDS011;10704;42.678;23.288;2024-03-02T01:35:24;36.05;;;17.20;;
21091;SDS011;10704;42.678;23.288;2024-03-02T01:37:51;36.45;;;18.73;;
21091;SDS011;10704;42.678;23.288;2024-03-02T01:40:17;34.70;;;17.23;;
21091;SDS011;10704;42.678;23.288;2024-03-02T01:42:44;35.47;;;17.50;;
21091;SDS011;10704;42.678;23.288;2024-03-02T01:52:45;32.80;;;16.05;;
21091;SDS011;10704;42.678;23.288;2024-03-02T01:55:11;33.83;;;15.65;;
21091;SDS011;10704;42.678;23.288;2024-03-02T01:57:37;36.20;;;17.52;;
21091;SDS011;10704;42.678;23.288;2024-03-02T02:00:06;34.13;;;16.02;;
21091;SDS011;10704;42.678;23.288;2024-03-02T02:02:37;35.85;;;15.80;;
21091;SDS011;10704;42.678;23.288;2024-03-02T02:05:03;34.00;;;16.52;;
21091;SDS011;10704;42.678;23.288;2024-03-02T02:07:47;31.92;;;16.33;;
21091;SDS011;10704;42.678;23.288;2024-03-02T02:10:13;30.30;;;15.82;;
21091;SDS011;10704;42.678;23.288;2024-03-02T02:12:39;31.88;;;16.90;;
21091;SDS011;10704;42.678;23.288;2024-03-02T02:17:50;35.40;;;16.67;;
21091;SDS011;10704;42.678;23.288;2024-03-02T02:20:16;36.83;;;18.98;;
21091;SDS011;10704;42.678;23.288;2024-03-02T02:23:05;41.03;;;19.52;;
21091;SDS011;10704;42.678;23.288;2024-03-02T02:25:33;37.13;;;18.25;;
21091;SDS011;10704;42.678;23.288;2024-03-02T02:27:59;41.40;;;18.38;;
21091;SDS011;10704;42.678;23.288;2024-03-02T02:30:26;37.00;;;18.80;;
21091;SDS011;10704;42.678;23.288;2024-03-02T02:32:53;37.95;;;18.15;;
21091;SDS011;10704;42.678;23.288;2024-03-02T02:35:20;38.83;;;18.15;;
21091;SDS011;10704;42.678;23.288;2024-03-02T02:37:46;40.47;;;19.55;;
21091;SDS011;10704;42.678;23.288;2024-03-02T02:40:13;39.65;;;20.48;;
21091;SDS011;10704;42.678;23.288;2024-03-02T02:42:40;45.25;;;21.70;;
21091;SDS011;10704;42.678;23.288;2024-03-02T02:55:57;42.97;;;22.63;;
21091;SDS011;10704;42.678;23.288;2024-03-02T02:58:23;47.00;;;23.17;;
21091;SDS011;10704;42.678;23.288;2024-03-02T03:04:36;46.85;;;23.60;;
21091;SDS011;10704;42.678;23.288;2024-03-02T03:07:05;50.42;;;25.17;;
21091;SDS011;10704;42.678;23.288;2024-03-02T03:09:31;50.65;;;24.73;;
21091;SDS011;10704;42.678;23.288;2024-03-02T03:11:57;53.38;;;26.33;;
21091;SDS011;10704;42.678;23.288;2024-03-02T03:14:23;48.53;;;24.00;;
21091;SDS011;10704;42.678;23.288;2024-03-02T03:16:49;48.25;;;25.58;;
21091;SDS011;10704;42.678;23.288;2024-03-02T03:19:15;53.83;;;24.40;;
21091;SDS011;10704;42.678;23.288;2024-03-02T03:21:43;48.33;;;25.27;;
21091;SDS011;10704;42.678;23.288;2024-03-02T03:24:09;54.50;;;26.15;;
21091;SDS011;10704;42.678;23.288;2024-03-02T03:26:38;58.45;;;26.80;;
21091;SDS011;10704;42.678;23.288;2024-03-02T03:29:04;51.83;;;23.85;;
21091;SDS011;10704;42.678;23.288;2024-03-02T03:35:18;49.85;;;24.15;;
21091;SDS011;10704;42.678;23.288;2024-03-02T03:40:32;57.35;;;26.55;;
21091;SDS011;10704;42.678;23.288;2024-03-02T03:42:58;59.00;;;25.75;;
21091;SDS011;10704;42.678;23.288;2024-03-02T03:45:25;54.70;;;27.40;;
21091;SDS011;10704;42.678;23.288;2024-03-02T03:47:52;55.00;;;24.85;;
21091;SDS011;10704;42.678;23.288;2024-03-02T03:50:18;56.42;;;26.38;;
21091;SDS011;10704;42.678;23.288;2024-03-02T03:52:45;51.00;;;25.05;;
21091;SDS011;10704;42.678;23.288;2024-03-02T04:01:09;55.47;;;24.92;;
21091;SDS011;10704;42.678;23.288;2024-03-02T04:03:35;57.08;;;26.25;;
21091;SDS011;10704;42.678;23.288;2024-03-02T04:06:01;54.45;;;24.48;;
21091;SDS011;10704;42.678;23.288;2024-03-02T04:08:28;55.55;;;25.38;;
21091;SDS011;10704;42.678;23.288;2024-03-02T04:10:53;58.50;;;25.95;;
21091;SDS011;10704;42.678;23.288;2024-03-02T04:13:19;53.20;;;25.00;;
21091;SDS011;10704;42.678;23.288;2024-03-02T04:15:45;56.13;;;25.77;;
21091;SDS011;10704;42.678;23.288;2024-03-02T04:21:59;52.60;;;24.73;;
21091;SDS011;10704;42.678;23.288;2024-03-02T04:24:25;47.03;;;23.90;;
21091;SDS011;10704;42.678;23.288;2024-03-02T04:26:51;50.05;;;25.63;;
21091;SDS011;10704;42.678;23.288;2024-03-02T04:31:46;60.80;;;26.30;;
21091;SDS011;10704;42.678;23.288;2024-03-02T04:34:12;55.53;;;26.98;;
21091;SDS011;10704;42.678;23.288;2024-03-02T04:49:23;62.97;;;27.77;;
21091;SDS011;10704;42.678;23.288;2024-03-02T04:51:49;58.38;;;27.70;;
21091;SDS011;10704;42.678;23.288;2024-03-02T04:54:16;67.28;;;29.38;;
21091;SDS011;10704;42.678;23.288;2024-03-02T05:11:01;58.88;;;27.27;;
21091;SDS011;10704;42.678;23.288;2024-03-02T05:13:47;67.43;;;28.85;;
21091;SDS011;10704;42.678;23.288;2024-03-02T05:16:14;62.95;;;28.75;;
21091;SDS011;10704;42.678;23.288;2024-03-02T05:18:40;62.13;;;29.58;;
21091;SDS011;10704;42.678;23.288;2024-03-02T05:21:06;56.58;;;28.95;;
21091;SDS011;10704;42.678;23.288;2024-03-02T05:26:41;68.65;;;30.77;;
21091;SDS011;10704;42.678;23.288;2024-03-02T05:32:14;61.17;;;29.45;;
21091;SDS011;10704;42.678;23.288;2024-03-02T05:34:39;67.80;;;28.98;;
21091;SDS011;10704;42.678;23.288;2024-03-02T05:37:06;63.17;;;29.55;;
21091;SDS011;10704;42.678;23.288;2024-03-02T05:43:20;62.90;;;30.08;;
21091;SDS011;10704;42.678;23.288;2024-03-02T05:45:46;67.60;;;30.73;;
21091;SDS011;10704;42.678;23.288;2024-03-02T05:48:12;72.03;;;30.98;;
21091;SDS011;10704;42.678;23.288;2024-03-02T05:50:38;64.65;;;30.52;;
21091;SDS011;10704;42.678;23.288;2024-03-02T05:53:04;76.03;;;32.08;;
21091;SDS011;10704;42.678;23.288;2024-03-02T05:55:31;67.15;;;31.02;;
21091;SDS011;10704;42.678;23.288;2024-03-02T05:57:57;69.72;;;31.00;;
21091;SDS011;10704;42.678;23.288;2024-03-02T06:00:32;76.05;;;31.45;;
21091;SDS011;10704;42.678;23.288;2024-03-02T06:02:58;72.35;;;32.85;;
21091;SDS011;10704;42.678;23.288;2024-03-02T06:05:24;68.38;;;29.77;;
21091;SDS011;10704;42.678;23.288;2024-03-02T06:07:50;67.65;;;31.15;;
21091;SDS011;10704;42.678;23.288;2024-03-02T06:10:16;66.45;;;29.70;;
21091;SDS011;10704;42.678;23.288;2024-03-02T06:12:42;70.72;;;31.90;;
21091;SDS011;10704;42.678;23.288;2024-03-02T06:15:09;70.95;;;32.70;;
21091;SDS011;10704;42.678;23.288;2024-03-02T06:17:36;75.68;;;35.13;;
21091;SDS011;10704;42.678;23.288;2024-03-02T06:20:02;78.35;;;34.95;;
21091;SDS011;10704;42.678;23.288;2024-03-02T06:25:33;75.97;;;34.45;;
21091;SDS011;10704;42.678;23.288;2024-03-02T06:27:59;75.60;;;35.80;;
21091;SDS011;10704;42.678;23.288;2024-03-02T06:30:25;81.18;;;34.10;;
21091;SDS011;10704;42.678;23.288;2024-03-02T06:33:07;71.45;;;35.10;;
21091;SDS011;10704;42.678;23.288;2024-03-02T06:35:32;78.15;;;34.15;;
21091;SDS011;10704;42.678;23.288;2024-03-02T06:38:00;71.57;;;35.33;;
21091;SDS011;10704;42.678;23.288;2024-03-02T06:40:29;69.18;;;33.83;;
21091;SDS011;10704;42.678;23.288;2024-03-02T06:42:55;65.00;;;32.45;;
21091;SDS011;10704;42.678;23.288;2024-03-02T06:45:21;61.03;;;29.98;;
21091;SDS011;10704;42.678;23.288;2024-03-02T06:47:54;69.53;;;30.55;;
21091;SDS011;10704;42.678;23.288;2024-03-02T06:50:20;65.05;;;29.65;;
21091;SDS011;10704;42.678;23.288;2024-03-02T06:56:34;54.75;;;24.98;;
21091;SDS011;10704;42.678;23.288;2024-03-02T06:59:00;57.65;;;25.38;;
21091;SDS011;10704;42.678;23.288;2024-03-02T07:01:26;52.88;;;24.02;;
21091;SDS011;10704;42.678;23.288;2024-03-02T07:03:53;52.60;;;22.67;;
21091;SDS011;10704;42.678;23.288;2024-03-02T07:06:19;50.75;;;23.60;;
21091;SDS011;10704;42.678;23.288;2024-03-02T07:08:45;55.70;;;23.77;;
21091;SDS011;10704;42.678;23.288;2024-03-02T07:11:11;55.00;;;25.25;;
21091;SDS011;10704;42.678;23.288;2024-03-02T07:13:37;49.13;;;22.27;;
21091;SDS011;10704;42.678;23.288;2024-03-02T07:16:03;48.05;;;23.23;;
21091;SDS011;10704;42.678;23.288;2024-03-02T07:18:55;53.63;;;25.35;;
21091;SDS011;10704;42.678;23.288;2024-03-02T07:21:22;56.10;;;24.83;;
21091;SDS011;10704;42.678;23.288;2024-03-02T07:23:48;49.05;;;24.52;;
21091;SDS011;10704;42.678;23.288;2024-03-02T07:26:15;44.90;;;21.75;;
21091;SDS011;10704;42.678;23.288;2024-03-02T07:28:42;48.17;;;23.35;;
21091;SDS011;10704;42.678;23.288;2024-03-02T07:33:45;51.13;;;22.73;;
21091;SDS011;10704;42.678;23.288;2024-03-02T07:36:11;48.08;;;22.77;;
21091;SDS011;10704;42.678;23.288;2024-03-02T07:38:38;50.00;;;22.48;;
21091;SDS011;10704;42.678;23.288;2024-03-02T07:41:05;48.95;;;22.25;;
21091;SDS011;10704;42.678;23.288;2024-03-02T07:43:32;49.05;;;21.85;;
21091;SDS011;10704;42.678;23.288;2024-03-02T07:46:00;49.15;;;22.48;;
21091;SDS011;10704;42.678;23.288;2024-03-02T07:52:15;53.45;;;23.65;;
21091;SDS011;10704;42.678;23.288;2024-03-02T07:54:41;43.05;;;21.85;;
21091;SDS011;10704;42.678;23.288;2024-03-02T07:57:07;45.88;;;22.10;;
21091;SDS011;10704;42.678;23.288;2024-03-02T07:59:33;47.42;;;20.63;;
21091;SDS011;10704;42.678;23.288;2024-03-02T08:01:59;49.28;;;22.30;;
21091;SDS011;10704;42.678;23.288;2024-03-02T08:04:26;45.80;;;21.88;;
21091;SDS011;10704;42.678;23.288;2024-03-02T08:06:51;54.03;;;23.40;;
21091;SDS011;10704;42.678;23.288;2024-03-02T08:09:18;53.58;;;24.05;;
21091;SDS011;10704;42.678;23.288;2024-03-02T08:11:43;50.10;;;22.95;;
21091;SDS011;10704;42.678;23.288;2024-03-02T08:14:09;47.80;;;21.58;;
21091;SDS011;10704;42.678;23.288;2024-03-02T08:16:35;52.00;;;23.33;;
21091;SDS011;10704;42.678;23.288;2024-03-02T08:19:01;48.50;;;22.58;;
21091;SDS011;10704;42.678;23.288;2024-03-02T08:21:28;57.35;;;23.27;;
21091;SDS011;10704;42.678;23.288;2024-03-02T08:23:56;47.92;;;23.25;;
21091;SDS011;10704;42.678;23.288;2024-03-02T08:26:23;56.85;;;24.60;;
21091;SDS011;10704;42.678;23.288;2024-03-02T08:28:49;52.95;;;24.40;;
21091;SDS011;10704;42.678;23.288;2024-03-02T08:31:15;47.95;;;22.15;;
21091;SDS011;10704;42.678;23.288;2024-03-02T08:33:41;55.00;;;22.45;;
21091;SDS011;10704;42.678;23.288;2024-03-02T08:36:07;52.35;;;23.25;;
21091;SDS011;10704;42.678;23.288;2024-03-02T08:38:34;46.60;;;23.20;;
21091;SDS011;10704;42.678;23.288;2024-03-02T08:41:01;50.50;;;22.95;;
21091;SDS011;10704;42.678;23.288;2024-03-02T08:43:26;47.80;;;22.83;;
21091;SDS011;10704;42.678;23.288;2024-03-02T08:45:52;43.63;;;20.50;;
21091;SDS011;10704;42.678;23.288;2024-03-02T08:48:18;46.65;;;22.52;;
21091;SDS011;10704;42.678;23.288;2024-03-02T08:50:46;47.50;;;22.60;;
21091;SDS011;10704;42.678;23.288;2024-03-02T08:53:12;47.28;;;21.80;;
21091;SDS011;10704;42.678;23.288;2024-03-02T08:55:38;48.25;;;22.05;;
21091;SDS011;10704;42.678;23.288;2024-03-02T08:58:05;46.40;;;22.65;;
21091;SDS011;10704;42.678;23.288;2024-03-02T09:00:32;41.45;;;20.00;;
21091;SDS011;10704;42.678;23.288;2024-03-02T09:02:58;34.20;;;18.35;;
21091;SDS011;10704;42.678;23.288;2024-03-02T09:05:24;39.63;;;19.17;;
21091;SDS011;10704;42.678;23.288;2024-03-02T09:07:50;40.75;;;19.70;;
21091;SDS011;10704;42.678;23.288;2024-03-02T09:10:15;40.78;;;19.58;;
21091;SDS011;10704;42.678;23.288;2024-03-02T09:12:41;36.22;;;17.80;;
21091;SDS011;10704;42.678;23.288;2024-03-02T09:15:08;38.15;;;18.85;;
21091;SDS011;10704;42.678;23.288;2024-03-02T09:17:35;33.25;;;17.02;;
21091;SDS011;10704;42.678;23.288;2024-03-02T09:20:01;36.38;;;18.20;;
21091;SDS011;10704;42.678;23.288;2024-03-02T09:22:29;34.20;;;18.27;;
21091;SDS011;10704;42.678;23.288;2024-03-02T09:28:43;38.97;;;18.63;;
21091;SDS011;10704;42.678;23.288;2024-03-02T09:31:09;33.08;;;17.10;;
21091;SDS011;10704;42.678;23.288;2024-03-02T09:33:35;34.63;;;18.27;;
21091;SDS011;10704;42.678;23.288;2024-03-02T09:36:01;37.53;;;17.17;;
21091;SDS011;10704;42.678;23.288;2024-03-02T09:38:27;35.35;;;16.42;;
21091;SDS011;10704;42.678;23.288;2024-03-02T09:40:53;34.72;;;16.63;;
21091;SDS011;10704;42.678;23.288;2024-03-02T09:43:19;33.13;;;15.90;;
21091;SDS011;10704;42.678;23.288;2024-03-02T09:49:32;37.30;;;18.02;;
21091;SDS011;10704;42.678;23.288;2024-03-02T09:51:58;36.90;;;17.25;;
21091;SDS011;10704;42.678;23.288;2024-03-02T09:54:24;36.10;;;17.58;;
21091;SDS011;10704;42.678;23.288;2024-03-02T09:56:50;37.05;;;17.90;;
21091;SDS011;10704;42.678;23.288;2024-03-02T09:59:17;40.08;;;18.63;;
21091;SDS011;10704;42.678;23.288;2024-03-02T10:02:00;39.15;;;19.80;;
21091;SDS011;10704;42.678;23.288;2024-03-02T10:04:27;41.53;;;19.85;;
21091;SDS011;10704;42.678;23.288;2024-03-02T10:07:10;43.25;;;19.02;;
21091;SDS011;10704;42.678;23.288;2024-03-02T10:09:37;41.35;;;20.60;;
21091;SDS011;10704;42.678;23.288;2024-03-02T10:12:04;39.83;;;19.27;;
21091;SDS011;10704;42.678;23.288;2024-03-02T10:14:31;44.15;;;21.38;;
21091;SDS011;10704;42.678;23.288;2024-03-02T10:17:01;42.20;;;20.20;;
21091;SDS011;10704;42.678;23.288;2024-03-02T10:19:31;39.45;;;19.27;;
21091;SDS011;10704;42.678;23.288;2024-03-02T10:21:58;45.42;;;21.40;;
21091;SDS011;10704;42.678;23.288;2024-03-02T10:27:09;42.33;;;19.75;;
21091;SDS011;10704;42.678;23.288;2024-03-02T10:29:40;40.55;;;21.25;;
21091;SDS011;10704;42.678;23.288;2024-03-02T10:32:09;42.28;;;19.45;;
21091;SDS011;10704;42.678;23.288;2024-03-02T10:34:42;44.60;;;20.83;;
21091;SDS011;10704;42.678;23.288;2024-03-02T10:37:12;48.47;;;21.88;;
21091;SDS011;10704;42.678;23.288;2024-03-02T10:39:39;44.10;;;21.50;;
21091;SDS011;10704;42.678;23.288;2024-03-02T10:42:08;41.40;;;20.40;;
21091;SDS011;10704;42.678;23.288;2024-03-02T10:44:35;40.85;;;20.75;;
21091;SDS011;10704;42.678;23.288;2024-03-02T10:47:01;46.17;;;22.67;;
21091;SDS011;10704;42.678;23.288;2024-03-02T10:49:32;44.00;;;22.67;;
21091;SDS011;10704;42.678;23.288;2024-03-02T10:51:59;43.83;;;21.83;;
21091;SDS011;10704;42.678;23.288;2024-03-02T10:54:25;47.95;;;23.33;;
21091;SDS011;10704;42.678;23.288;2024-03-02T10:56:54;45.85;;;23.00;;
21091;SDS011;10704;42.678;23.288;2024-03-02T10:59:36;50.83;;;23.33;;
21091;SDS011;10704;42.678;23.288;2024-03-02T11:02:06;48.10;;;23.50;;
21091;SDS011;10704;42.678;23.288;2024-03-02T11:04:37;47.40;;;23.70;;
21091;SDS011;10704;42.678;23.288;2024-03-02T11:07:06;42.53;;;22.25;;
21091;SDS011;10704;42.678;23.288;2024-03-02T11:09:37;50.17;;;22.55;;
21091;SDS011;10704;42.678;23.288;2024-03-02T11:12:09;44.88;;;22.30;;
21091;SDS011;10704;42.678;23.288;2024-03-02T11:14:43;46.15;;;21.88;;
21091;SDS011;10704;42.678;23.288;2024-03-02T11:17:09;39.92;;;20.48;;
21091;SDS011;10704;42.678;23.288;2024-03-02T11:19:40;45.05;;;21.80;;
21091;SDS011;10704;42.678;23.288;2024-03-02T11:22:06;40.78;;;21.77;;
21091;SDS011;10704;42.678;23.288;2024-03-02T11:24:34;46.13;;;22.63;;
21091;SDS011;10704;42.678;23.288;2024-03-02T11:27:06;47.33;;;20.98;;
21091;SDS011;10704;42.678;23.288;2024-03-02T11:32:04;42.17;;;21.20;;
21091;SDS011;10704;42.678;23.288;2024-03-02T11:34:35;37.35;;;19.65;;
21091;SDS011;10704;42.678;23.288;2024-03-02T11:37:02;42.33;;;20.52;;
21091;SDS011;10704;42.678;23.288;2024-03-02T11:39:28;42.22;;;20.67;;
21091;SDS011;10704;42.678;23.288;2024-03-02T11:41:55;37.35;;;18.80;;
21091;SDS011;10704;42.678;23.288;2024-03-02T11:44:24;37.72;;;20.42;;
21091;SDS011;10704;42.678;23.288;2024-03-02T11:46:53;40.80;;;21.08;;
21091;SDS011;10704;42.678;23.288;2024-03-02T11:49:40;40.47;;;21.20;;
21091;SDS011;10704;42.678;23.288;2024-03-02T11:52:11;36.53;;;18.67;;
21091;SDS011;10704;42.678;23.288;2024-03-02T11:54:39;37.03;;;19.17;;
21091;SDS011;10704;42.678;23.288;2024-03-02T11:57:11;36.33;;;19.35;;
21091;SDS011;10704;42.678;23.288;2024-03-02T11:59:41;39.67;;;20.05;;
21091;SDS011;10704;42.678;23.288;2024-03-02T12:02:12;39.03;;;20.75;;
21091;SDS011;10704;42.678;23.288;2024-03-02T12:04:44;38.80;;;19.85;;
21091;SDS011;10704;42.678;23.288;2024-03-02T12:07:12;38.88;;;19.73;;
21091;SDS011;10704;42.678;23.288;2024-03-02T12:09:43;37.33;;;19.98;;
21091;SDS011;10704;42.678;23.288;2024-03-02T12:12:09;39.63;;;20.13;;
21091;SDS011;10704;42.678;23.288;2024-03-02T12:14:36;35.88;;;18.60;;
21091;SDS011;10704;42.678;23.288;2024-03-02T12:17:04;30.13;;;17.48;;
21091;SDS011;10704;42.678;23.288;2024-03-02T12:19:31;38.88;;;19.35;;
21091;SDS011;10704;42.678;23.288;2024-03-02T12:21:58;40.15;;;20.05;;
21091;SDS011;10704;42.678;23.288;2024-03-02T12:24:28;37.35;;;19.58;;
21091;SDS011;10704;42.678;23.288;2024-03-02T12:26:55;36.75;;;20.05;;
21091;SDS011;10704;42.678;23.288;2024-03-02T12:29:22;41.78;;;21.85;;
21091;SDS011;10704;42.678;23.288;2024-03-02T12:31:50;37.20;;;20.40;;
21091;SDS011;10704;42.678;23.288;2024-03-02T12:34:20;37.33;;;19.77;;
21091;SDS011;10704;42.678;23.288;2024-03-02T12:36:47;38.63;;;20.02;;
21091;SDS011;10704;42.678;23.288;2024-03-02T12:39:17;37.60;;;19.55;;
21091;SDS011;10704;42.678;23.288;2024-03-02T12:41:50;37.40;;;20.38;;
21091;SDS011;10704;42.678;23.288;2024-03-02T12:44:16;38.40;;;20.58;;
21091;SDS011;10704;42.678;23.288;2024-03-02T12:46:43;38.72;;;20.65;;
21091;SDS011;10704;42.678;23.288;2024-03-02T12:49:13;40.15;;;20.77;;
21091;SDS011;10704;42.678;23.288;2024-03-02T12:51:43;40.17;;;20.83;;
21091;SDS011;10704;42.678;23.288;2024-03-02T12:54:12;38.10;;;20.42;;
21091;SDS011;10704;42.678;23.288;2024-03-02T12:56:40;42.90;;;21.40;;
21091;SDS011;10704;42.678;23.288;2024-03-02T12:59:18;33.20;;;19.10;;
21091;SDS011;10704;42.678;23.288;2024-03-02T13:01:53;39.65;;;20.33;;
21091;SDS011;10704;42.678;23.288;2024-03-02T13:04:24;40.75;;;19.90;;
21091;SDS011;10704;42.678;23.288;2024-03-02T13:06:51;37.97;;;20.73;;
21091;SDS011;10704;42.678;23.288;2024-03-02T13:09:17;37.38;;;18.92;;
21091;SDS011;10704;42.678;23.288;2024-03-02T13:11:44;36.00;;;19.77;;
21091;SDS011;10704;42.678;23.288;2024-03-02T13:14:10;38.60;;;19.77;;
21091;SDS011;10704;42.678;23.288;2024-03-02T13:16:39;37.42;;;19.23;;
21091;SDS011;10704;42.678;23.288;2024-03-02T13:19:11;34.25;;;18.83;;
21091;SDS011;10704;42.678;23.288;2024-03-02T13:21:37;34.78;;;19.25;;
21091;SDS011;10704;42.678;23.288;2024-03-02T13:24:04;44.78;;;24.52;;
21091;SDS011;10704;42.678;23.288;2024-03-02T13:26:30;41.70;;;21.48;;
21091;SDS011;10704;42.678;23.288;2024-03-02T13:28:56;35.55;;;19.80;;
21091;SDS011;10704;42.678;23.288;2024-03-02T13:31:22;35.05;;;19.88;;
21091;SDS011;10704;42.678;23.288;2024-03-02T13:33:48;35.42;;;19.88;;
21091;SDS011;10704;42.678;23.288;2024-03-02T13:36:14;39.40;;;19.90;;
21091;SDS011;10704;42.678;23.288;2024-03-02T13:38:40;40.42;;;20.58;;
21091;SDS011;10704;42.678;23.288;2024-03-02T13:41:07;31.23;;;18.50;;
21091;SDS011;10704;42.678;23.288;2024-03-02T13:43:33;36.53;;;20.23;;
21091;SDS011;10704;42.678;23.288;2024-03-02T13:48:45;35.10;;;19.70;;
21091;SDS011;10704;42.678;23.288;2024-03-02T13:51:11;34.33;;;19.75;;
21091;SDS011;10704;42.678;23.288;2024-03-02T13:53:37;31.85;;;18.50;;
21091;SDS011;10704;42.678;23.288;2024-03-02T13:56:03;35.22;;;19.15;;
21091;SDS011;10704;42.678;23.288;2024-03-02T13:58:30;35.53;;;20.20;;
21091;SDS011;10704;42.678;23.288;2024-03-02T14:00:56;35.97;;;19.80;;
21091;SDS011;10704;42.678;23.288;2024-03-02T14:03:22;34.60;;;19.02;;
21091;SDS011;10704;42.678;23.288;2024-03-02T14:05:49;38.10;;;19.80;;
21091;SDS011;10704;42.678;23.288;2024-03-02T14:08:15;37.85;;;19.60;;
21091;SDS011;10704;42.678;23.288;2024-03-02T14:10:44;36.58;;;19.13;;
21091;SDS011;10704;42.678;23.288;2024-03-02T14:13:10;38.65;;;20.58;;
21091;SDS011;10704;42.678;23.288;2024-03-02T14:15:36;37.47;;;20.75;;
21091;SDS011;10704;42.678;23.288;2024-03-02T14:18:05;38.10;;;21.00;;
21091;SDS011;10704;42.678;23.288;2024-03-02T14:20:31;38.95;;;21.45;;
21091;SDS011;10704;42.678;23.288;2024-03-02T14:22:58;42.35;;;22.08;;
21091;SDS011;10704;42.678;23.288;2024-03-02T14:25:28;37.85;;;21.63;;
21091;SDS011;10704;42.678;23.288;2024-03-02T14:27:58;41.17;;;21.30;;
21091;SDS011;10704;42.678;23.288;2024-03-02T14:30:25;39.10;;;20.35;;
21091;SDS011;10704;42.678;23.288;2024-03-02T14:32:50;36.13;;;20.25;;
21091;SDS011;10704;42.678;23.288;2024-03-02T14:35:16;41.72;;;21.52;;
21091;SDS011;10704;42.678;23.288;2024-03-02T14:37:43;36.88;;;20.38;;
21091;SDS011;10704;42.678;23.288;2024-03-02T14:40:10;39.83;;;23.35;;
21091;SDS011;10704;42.678;23.288;2024-03-02T14:42:37;35.05;;;19.35;;
21091;SDS011;10704;42.678;23.288;2024-03-02T14:45:03;40.22;;;22.10;;
21091;SDS011;10704;42.678;23.288;2024-03-02T14:47:33;37.15;;;21.27;;
21091;SDS011;10704;42.678;23.288;2024-03-02T14:50:00;35.75;;;20.15;;
21091;SDS011;10704;42.678;23.288;2024-03-02T14:52:31;41.60;;;20.58;;
21091;SDS011;10704;42.678;23.288;2024-03-02T14:54:58;35.40;;;19.92;;
21091;SDS011;10704;42.678;23.288;2024-03-02T14:57:24;36.65;;;21.00;;
21091;SDS011;10704;42.678;23.288;2024-03-02T14:59:50;46.45;;;20.83;;
21091;SDS011;10704;42.678;23.288;2024-03-02T15:02:16;39.83;;;20.17;;
21091;SDS011;10704;42.678;23.288;2024-03-02T15:04:42;38.65;;;20.58;;
21091;SDS011;10704;42.678;23.288;2024-03-02T15:07:10;35.08;;;19.92;;
21091;SDS011;10704;42.678;23.288;2024-03-02T15:09:36;38.08;;;20.85;;
21091;SDS011;10704;42.678;23.288;2024-03-02T15:12:02;37.70;;;21.42;;
21091;SDS011;10704;42.678;23.288;2024-03-02T15:14:29;39.05;;;21.75;;
21091;SDS011;10704;42.678;23.288;2024-03-02T15:16:55;38.35;;;21.63;;
21091;SDS011;10704;42.678;23.288;2024-03-02T15:19:21;41.92;;;21.10;;
21091;SDS011;10704;42.678;23.288;2024-03-02T15:21:47;37.58;;;21.40;;
21091;SDS011;10704;42.678;23.288;2024-03-02T15:24:13;39.70;;;22.48;;
21091;SDS011;10704;42.678;23.288;2024-03-02T15:26:39;43.85;;;24.02;;
21091;SDS011;10704;42.678;23.288;2024-03-02T15:29:05;40.55;;;23.17;;
21091;SDS011;10704;42.678;23.288;2024-03-02T15:31:31;38.03;;;21.77;;
21091;SDS011;10704;42.678;23.288;2024-03-02T15:33:58;41.20;;;23.38;;
21091;SDS011;10704;42.678;23.288;2024-03-02T15:36:24;42.38;;;24.38;;
21091;SDS011;10704;42.678;23.288;2024-03-02T15:38:51;44.08;;;23.52;;
21091;SDS011;10704;42.678;23.288;2024-03-02T15:41:17;48.55;;;26.38;;
21091;SDS011;10704;42.678;23.288;2024-03-02T15:43:42;46.35;;;24.83;;
21091;SDS011;10704;42.678;23.288;2024-03-02T15:46:09;40.90;;;24.15;;
21091;SDS011;10704;42.678;23.288;2024-03-02T15:48:35;41.05;;;23.58;;
21091;SDS011;10704;42.678;23.288;2024-03-02T15:51:01;47.20;;;25.50;;
21091;SDS011;10704;42.678;23.288;2024-03-02T15:53:29;44.63;;;24.65;;
21091;SDS011;10704;42.678;23.288;2024-03-02T15:55:56;43.72;;;24.38;;
21091;SDS011;10704;42.678;23.288;2024-03-02T15:58:21;41.55;;;24.08;;
21091;SDS011;10704;42.678;23.288;2024-03-02T16:00:47;41.95;;;25.00;;
21091;SDS011;10704;42.678;23.288;2024-03-02T16:03:13;42.88;;;22.52;;
21091;SDS011;10704;42.678;23.288;2024-03-02T16:05:39;43.95;;;23.45;;
21091;SDS011;10704;42.678;23.288;2024-03-02T16:08:05;39.22;;;22.65;;
21091;SDS011;10704;42.678;23.288;2024-03-02T16:10:31;39.85;;;23.08;;
21091;SDS011;10704;42.678;23.288;2024-03-02T16:12:57;39.67;;;22.55;;
21091;SDS011;10704;42.678;23.288;2024-03-02T16:15:28;39.65;;;22.80;;
21091;SDS011;10704;42.678;23.288;2024-03-02T16:17:54;42.92;;;23.25;;
21091;SDS011;10704;42.678;23.288;2024-03-02T16:20:20;42.58;;;23.98;;
21091;SDS011;10704;42.678;23.288;2024-03-02T16:22:45;45.15;;;23.38;;
21091;SDS011;10704;42.678;23.288;2024-03-02T16:25:11;41.55;;;22.75;;
21091;SDS011;10704;42.678;23.288;2024-03-02T16:27:37;40.85;;;23.15;;
21091;SDS011;10704;42.678;23.288;2024-03-02T16:30:04;37.92;;;22.60;;